sensor_id;sensor_type;location;lat;lon;timestamp;P1;durP1;ratioP1;P2;durP2;ratioP2
21550;SDS011;10936;49.836;7.078;2022-09-09T00:01:43;4.20;;;1.02;;
21550;SDS011;10936;49.836;7.078;2022-09-09T00:04:32;1.50;;;0.80;;
21550;SDS011;10936;49.836;7.078;2022-09-09T00:16:40;5.32;;;1.00;;
21550;SDS011;10936;49.836;7.078;2022-09-09T00:23:39;2.08;;;0.80;;
21550;SDS011;10936;49.836;7.078;2022-09-09T00:26:16;2.67;;;1.00;;
21550;SDS011;10936;49.836;7.078;2022-09-09T00:31:20;2.03;;;0.75;;
21550;SDS011;10936;49.836;7.078;2022-09-09T00:33:51;3.45;;;1.00;;
21550;SDS011;10936;49.836;7.078;2022-09-09T00:36:21;2.47;;;1.00;;
21550;SDS011;10936;49.836;7.078;2022-09-09T00:38:56;3.15;;;1.02;;
21550;SDS011;10936;49.836;7.078;2022-09-09T00:44:32;3.13;;;1.00;;
21550;SDS011;10936;49.836;7.078;2022-09-09T00:47:12;2.90;;;0.80;;
21550;SDS011;10936;49.836;7.078;2022-09-09T00:50:15;2.80;;;1.23;;
21550;SDS011;10936;49.836;7.078;2022-09-09T00:53:02;1.63;;;0.70;;
21550;SDS011;10936;49.836;7.078;2022-09-09T00:55:54;2.65;;;0.85;;
21550;SDS011;10936;49.836;7.078;2022-09-09T00:58:40;2.72;;;0.90;;
21550;SDS011;10936;49.836;7.078;2022-09-09T01:01:12;2.42;;;0.82;;
21550;SDS011;10936;49.836;7.078;2022-09-09T01:03:43;4.32;;;1.10;;
21550;SDS011;10936;49.836;7.078;2022-09-09T01:06:31;2.05;;;0.80;;
21550;SDS011;10936;49.836;7.078;2022-09-09T01:09:19;2.88;;;0.90;;
21550;SDS011;10936;49.836;7.078;2022-09-09T01:22:57;2.92;;;0.80;;
21550;SDS011;10936;49.836;7.078;2022-09-09T01:28:13;2.40;;;0.80;;
21550;SDS011;10936;49.836;7.078;2022-09-09T01:30:51;2.63;;;0.98;;
21550;SDS011;10936;49.836;7.078;2022-09-09T01:33:18;2.83;;;0.80;;
21550;SDS011;10936;49.836;7.078;2022-09-09T01:36:04;3.08;;;0.93;;
21550;SDS011;10936;49.836;7.078;2022-09-09T01:38:34;1.20;;;0.73;;
21550;SDS011;10936;49.836;7.078;2022-09-09T01:41:00;2.30;;;0.88;;
21550;SDS011;10936;49.836;7.078;2022-09-09T01:43:26;3.85;;;1.20;;
21550;SDS011;10936;49.836;7.078;2022-09-09T01:45:54;1.67;;;0.98;;
21550;SDS011;10936;49.836;7.078;2022-09-09T01:48:23;1.95;;;0.90;;
21550;SDS011;10936;49.836;7.078;2022-09-09T01:50:50;4.40;;;1.40;;
21550;SDS011;10936;49.836;7.078;2022-09-09T01:53:16;3.47;;;1.10;;
21550;SDS011;10936;49.836;7.078;2022-09-09T01:55:50;1.83;;;1.00;;
21550;SDS011;10936;49.836;7.078;2022-09-09T02:03:56;2.28;;;0.90;;
21550;SDS011;10936;49.836;7.078;2022-09-09T02:08:50;2.25;;;1.08;;
21550;SDS011;10936;49.836;7.078;2022-09-09T02:11:25;3.00;;;0.73;;
21550;SDS011;10936;49.836;7.078;2022-09-09T02:13:53;3.88;;;1.20;;
21550;SDS011;10936;49.836;7.078;2022-09-09T02:21:31;2.83;;;0.98;;
21550;SDS011;10936;49.836;7.078;2022-09-09T02:24:00;2.23;;;0.93;;
21550;SDS011;10936;49.836;7.078;2022-09-09T02:26:31;4.00;;;1.30;;
21550;SDS011;10936;49.836;7.078;2022-09-09T02:28:58;2.78;;;1.10;;
21550;SDS011;10936;49.836;7.078;2022-09-09T02:31:27;2.33;;;0.77;;
21550;SDS011;10936;49.836;7.078;2022-09-09T02:33:56;2.28;;;0.90;;
21550;SDS011;10936;49.836;7.078;2022-09-09T02:36:26;0.82;;;0.70;;
21550;SDS011;10936;49.836;7.078;2022-09-09T02:38:55;1.27;;;0.88;;
21550;SDS011;10936;49.836;7.078;2022-09-09T02:41:25;1.73;;;0.90;;
21550;SDS011;10936;49.836;7.078;2022-09-09T02:43:57;2.55;;;1.13;;
21550;SDS011;10936;49.836;7.078;2022-09-09T02:49:02;1.88;;;1.00;;
21550;SDS011;10936;49.836;7.078;2022-09-09T02:54:26;3.88;;;1.23;;
21550;SDS011;10936;49.836;7.078;2022-09-09T02:56:59;3.35;;;1.38;;
21550;SDS011;10936;49.836;7.078;2022-09-09T02:59:31;2.58;;;1.13;;
21550;SDS011;10936;49.836;7.078;2022-09-09T03:01:57;4.00;;;1.13;;
21550;SDS011;10936;49.836;7.078;2022-09-09T03:04:22;2.40;;;0.90;;
21550;SDS011;10936;49.836;7.078;2022-09-09T03:06:50;4.00;;;1.20;;
21550;SDS011;10936;49.836;7.078;2022-09-09T03:09:15;2.65;;;1.30;;
21550;SDS011;10936;49.836;7.078;2022-09-09T03:11:41;3.78;;;1.40;;
21550;SDS011;10936;49.836;7.078;2022-09-09T03:14:07;3.50;;;1.38;;
21550;SDS011;10936;49.836;7.078;2022-09-09T03:16:33;2.63;;;1.05;;
21550;SDS011;10936;49.836;7.078;2022-09-09T03:18:59;2.78;;;1.05;;
21550;SDS011;10936;49.836;7.078;2022-09-09T03:21:26;2.38;;;1.05;;
21550;SDS011;10936;49.836;7.078;2022-09-09T03:23:51;3.90;;;1.10;;
21550;SDS011;10936;49.836;7.078;2022-09-09T03:26:17;2.40;;;1.08;;
21550;SDS011;10936;49.836;7.078;2022-09-09T03:28:43;4.60;;;0.93;;
21550;SDS011;10936;49.836;7.078;2022-09-09T03:31:10;5.47;;;1.30;;
21550;SDS011;10936;49.836;7.078;2022-09-09T03:33:36;2.38;;;0.90;;
21550;SDS011;10936;49.836;7.078;2022-09-09T03:36:02;2.50;;;1.35;;
21550;SDS011;10936;49.836;7.078;2022-09-09T03:38:29;4.75;;;0.90;;
21550;SDS011;10936;49.836;7.078;2022-09-09T03:40:55;1.63;;;0.90;;
21550;SDS011;10936;49.836;7.078;2022-09-09T03:43:26;2.90;;;0.95;;
21550;SDS011;10936;49.836;7.078;2022-09-09T03:45:52;4.38;;;1.10;;
21550;SDS011;10936;49.836;7.078;2022-09-09T03:48:21;1.85;;;1.00;;
21550;SDS011;10936;49.836;7.078;2022-09-09T03:50:48;2.63;;;1.33;;
21550;SDS011;10936;49.836;7.078;2022-09-09T03:53:16;2.53;;;1.13;;
21550;SDS011;10936;49.836;7.078;2022-09-09T03:55:44;3.03;;;1.15;;
21550;SDS011;10936;49.836;7.078;2022-09-09T03:58:12;4.30;;;0.90;;
21550;SDS011;10936;49.836;7.078;2022-09-09T04:00:38;1.33;;;0.87;;
21550;SDS011;10936;49.836;7.078;2022-09-09T04:03:08;2.13;;;1.00;;
21550;SDS011;10936;49.836;7.078;2022-09-09T04:05:35;1.90;;;1.03;;
21550;SDS011;10936;49.836;7.078;2022-09-09T04:08:04;3.15;;;0.90;;
21550;SDS011;10936;49.836;7.078;2022-09-09T04:10:31;5.47;;;1.40;;
21550;SDS011;10936;49.836;7.078;2022-09-09T04:12:56;4.67;;;1.10;;
21550;SDS011;10936;49.836;7.078;2022-09-09T04:15:22;3.15;;;1.15;;
21550;SDS011;10936;49.836;7.078;2022-09-09T04:17:48;2.38;;;0.98;;
21550;SDS011;10936;49.836;7.078;2022-09-09T04:20:13;3.80;;;0.90;;
21550;SDS011;10936;49.836;7.078;2022-09-09T04:22:39;4.72;;;1.10;;
21550;SDS011;10936;49.836;7.078;2022-09-09T04:25:05;1.63;;;1.00;;
21550;SDS011;10936;49.836;7.078;2022-09-09T04:27:31;2.47;;;1.10;;
21550;SDS011;10936;49.836;7.078;2022-09-09T04:29:57;3.03;;;0.95;;
21550;SDS011;10936;49.836;7.078;2022-09-09T04:32:24;2.55;;;0.90;;
21550;SDS011;10936;49.836;7.078;2022-09-09T04:34:52;4.72;;;0.90;;
21550;SDS011;10936;49.836;7.078;2022-09-09T04:37:18;4.15;;;0.88;;
21550;SDS011;10936;49.836;7.078;2022-09-09T04:39:43;4.57;;;0.90;;
21550;SDS011;10936;49.836;7.078;2022-09-09T04:42:10;2.20;;;0.80;;
21550;SDS011;10936;49.836;7.078;2022-09-09T04:44:37;4.25;;;1.10;;
21550;SDS011;10936;49.836;7.078;2022-09-09T04:47:04;3.50;;;0.95;;
21550;SDS011;10936;49.836;7.078;2022-09-09T04:49:30;6.57;;;1.38;;
21550;SDS011;10936;49.836;7.078;2022-09-09T04:51:56;1.42;;;0.80;;
21550;SDS011;10936;49.836;7.078;2022-09-09T04:54:22;3.38;;;0.93;;
21550;SDS011;10936;49.836;7.078;2022-09-09T04:56:49;3.80;;;0.90;;
21550;SDS011;10936;49.836;7.078;2022-09-09T04:59:15;2.90;;;0.85;;
21550;SDS011;10936;49.836;7.078;2022-09-09T05:01:41;3.35;;;1.10;;
21550;SDS011;10936;49.836;7.078;2022-09-09T05:04:07;3.10;;;0.90;;
21550;SDS011;10936;49.836;7.078;2022-09-09T05:06:34;2.87;;;1.30;;
21550;SDS011;10936;49.836;7.078;2022-09-09T05:09:01;3.88;;;1.30;;
21550;SDS011;10936;49.836;7.078;2022-09-09T05:11:30;2.67;;;0.90;;
21550;SDS011;10936;49.836;7.078;2022-09-09T05:13:57;5.53;;;1.00;;
21550;SDS011;10936;49.836;7.078;2022-09-09T05:16:23;3.63;;;0.90;;
21550;SDS011;10936;49.836;7.078;2022-09-09T05:18:49;4.30;;;1.10;;
21550;SDS011;10936;49.836;7.078;2022-09-09T05:21:19;1.77;;;0.77;;
21550;SDS011;10936;49.836;7.078;2022-09-09T05:23:46;5.73;;;1.20;;
21550;SDS011;10936;49.836;7.078;2022-09-09T05:26:12;3.60;;;0.93;;
21550;SDS011;10936;49.836;7.078;2022-09-09T05:28:39;3.80;;;1.00;;
21550;SDS011;10936;49.836;7.078;2022-09-09T05:31:06;6.33;;;1.80;;
21550;SDS011;10936;49.836;7.078;2022-09-09T05:33:33;5.13;;;1.10;;
21550;SDS011;10936;49.836;7.078;2022-09-09T05:36:18;3.13;;;1.20;;
21550;SDS011;10936;49.836;7.078;2022-09-09T05:38:45;3.53;;;1.50;;
21550;SDS011;10936;49.836;7.078;2022-09-09T05:41:11;3.23;;;1.00;;
21550;SDS011;10936;49.836;7.078;2022-09-09T05:43:38;5.73;;;1.27;;
21550;SDS011;10936;49.836;7.078;2022-09-09T05:48:31;4.87;;;1.07;;
21550;SDS011;10936;49.836;7.078;2022-09-09T05:50:58;4.07;;;1.13;;
21550;SDS011;10936;49.836;7.078;2022-09-09T05:53:25;5.60;;;1.37;;
21550;SDS011;10936;49.836;7.078;2022-09-09T05:56:04;5.50;;;1.40;;
21550;SDS011;10936;49.836;7.078;2022-09-09T05:58:31;4.47;;;1.23;;
21550;SDS011;10936;49.836;7.078;2022-09-09T06:01:02;4.60;;;1.30;;
21550;SDS011;10936;49.836;7.078;2022-09-09T06:03:39;5.57;;;1.67;;
21550;SDS011;10936;49.836;7.078;2022-09-09T06:06:07;4.10;;;1.13;;
21550;SDS011;10936;49.836;7.078;2022-09-09T06:08:34;6.07;;;1.17;;
21550;SDS011;10936;49.836;7.078;2022-09-09T06:11:05;4.90;;;1.23;;
21550;SDS011;10936;49.836;7.078;2022-09-09T06:13:31;4.23;;;1.20;;
21550;SDS011;10936;49.836;7.078;2022-09-09T06:15:57;4.40;;;1.00;;
21550;SDS011;10936;49.836;7.078;2022-09-09T06:18:24;9.40;;;2.23;;
21550;SDS011;10936;49.836;7.078;2022-09-09T06:20:57;4.00;;;1.40;;
21550;SDS011;10936;49.836;7.078;2022-09-09T06:23:25;5.00;;;1.50;;
21550;SDS011;10936;49.836;7.078;2022-09-09T06:26:06;3.53;;;1.40;;
21550;SDS011;10936;49.836;7.078;2022-09-09T06:28:36;5.80;;;1.33;;
21550;SDS011;10936;49.836;7.078;2022-09-09T06:31:06;5.17;;;1.30;;
21550;SDS011;10936;49.836;7.078;2022-09-09T06:33:34;5.80;;;1.30;;
21550;SDS011;10936;49.836;7.078;2022-09-09T06:36:02;7.93;;;1.37;;
21550;SDS011;10936;49.836;7.078;2022-09-09T06:38:28;8.83;;;1.83;;
21550;SDS011;10936;49.836;7.078;2022-09-09T06:40:55;8.60;;;2.43;;
21550;SDS011;10936;49.836;7.078;2022-09-09T06:43:22;11.27;;;1.87;;
21550;SDS011;10936;49.836;7.078;2022-09-09T06:45:55;11.27;;;2.10;;
21550;SDS011;10936;49.836;7.078;2022-09-09T06:48:22;14.13;;;2.53;;
21550;SDS011;10936;49.836;7.078;2022-09-09T06:50:48;7.93;;;1.77;;
21550;SDS011;10936;49.836;7.078;2022-09-09T06:53:17;9.07;;;2.23;;
21550;SDS011;10936;49.836;7.078;2022-09-09T06:55:44;7.47;;;1.60;;
21550;SDS011;10936;49.836;7.078;2022-09-09T06:58:10;7.53;;;1.43;;
21550;SDS011;10936;49.836;7.078;2022-09-09T07:00:36;7.63;;;1.67;;
21550;SDS011;10936;49.836;7.078;2022-09-09T07:03:04;6.80;;;1.90;;
21550;SDS011;10936;49.836;7.078;2022-09-09T07:05:31;8.27;;;1.73;;
21550;SDS011;10936;49.836;7.078;2022-09-09T07:07:57;6.70;;;1.70;;
21550;SDS011;10936;49.836;7.078;2022-09-09T07:10:23;6.30;;;1.40;;
21550;SDS011;10936;49.836;7.078;2022-09-09T07:12:52;7.80;;;1.60;;
21550;SDS011;10936;49.836;7.078;2022-09-09T07:15:18;6.23;;;1.40;;
21550;SDS011;10936;49.836;7.078;2022-09-09T07:17:44;6.40;;;1.70;;
21550;SDS011;10936;49.836;7.078;2022-09-09T07:20:10;5.97;;;1.30;;
21550;SDS011;10936;49.836;7.078;2022-09-09T07:22:37;5.50;;;1.53;;
21550;SDS011;10936;49.836;7.078;2022-09-09T07:25:03;8.03;;;1.50;;
21550;SDS011;10936;49.836;7.078;2022-09-09T07:27:28;7.53;;;1.43;;
21550;SDS011;10936;49.836;7.078;2022-09-09T07:29:55;6.73;;;1.40;;
21550;SDS011;10936;49.836;7.078;2022-09-09T07:32:20;4.97;;;1.50;;
21550;SDS011;10936;49.836;7.078;2022-09-09T07:34:46;3.70;;;1.13;;
21550;SDS011;10936;49.836;7.078;2022-09-09T07:37:12;7.50;;;1.63;;
21550;SDS011;10936;49.836;7.078;2022-09-09T07:39:38;5.07;;;1.37;;
21550;SDS011;10936;49.836;7.078;2022-09-09T07:42:05;7.37;;;1.40;;
21550;SDS011;10936;49.836;7.078;2022-09-09T07:44:31;5.57;;;1.40;;
21550;SDS011;10936;49.836;7.078;2022-09-09T07:47:00;5.17;;;1.33;;
21550;SDS011;10936;49.836;7.078;2022-09-09T07:49:26;6.60;;;1.47;;
21550;SDS011;10936;49.836;7.078;2022-09-09T07:51:52;4.43;;;1.13;;
21550;SDS011;10936;49.836;7.078;2022-09-09T07:54:18;4.78;;;1.92;;
21550;SDS011;10936;49.836;7.078;2022-09-09T07:56:45;5.53;;;1.23;;
21550;SDS011;10936;49.836;7.078;2022-09-09T07:59:12;5.50;;;1.10;;
21550;SDS011;10936;49.836;7.078;2022-09-09T08:01:48;5.93;;;1.27;;
21550;SDS011;10936;49.836;7.078;2022-09-09T08:04:20;4.07;;;1.23;;
21550;SDS011;10936;49.836;7.078;2022-09-09T08:06:48;6.00;;;1.27;;
21550;SDS011;10936;49.836;7.078;2022-09-09T08:09:18;4.27;;;1.43;;
21550;SDS011;10936;49.836;7.078;2022-09-09T08:11:45;6.27;;;1.23;;
21550;SDS011;10936;49.836;7.078;2022-09-09T08:14:12;4.13;;;1.20;;
21550;SDS011;10936;49.836;7.078;2022-09-09T08:16:42;4.18;;;1.40;;
21550;SDS011;10936;49.836;7.078;2022-09-09T08:19:10;5.80;;;1.10;;
21550;SDS011;10936;49.836;7.078;2022-09-09T08:21:36;3.15;;;1.00;;
21550;SDS011;10936;49.836;7.078;2022-09-09T08:24:06;3.10;;;1.00;;
21550;SDS011;10936;49.836;7.078;2022-09-09T08:26:36;3.80;;;0.82;;
21550;SDS011;10936;49.836;7.078;2022-09-09T08:29:04;3.83;;;1.30;;
21550;SDS011;10936;49.836;7.078;2022-09-09T08:31:32;3.70;;;1.10;;
21550;SDS011;10936;49.836;7.078;2022-09-09T08:34:00;2.88;;;1.05;;
21550;SDS011;10936;49.836;7.078;2022-09-09T08:36:28;2.90;;;1.02;;
21550;SDS011;10936;49.836;7.078;2022-09-09T08:38:56;4.70;;;1.20;;
21550;SDS011;10936;49.836;7.078;2022-09-09T08:58:13;4.32;;;1.65;;
21550;SDS011;10936;49.836;7.078;2022-09-09T09:11:26;3.83;;;1.38;;
21550;SDS011;10936;49.836;7.078;2022-09-09T09:13:56;2.60;;;0.82;;
21550;SDS011;10936;49.836;7.078;2022-09-09T09:16:34;5.20;;;1.00;;
21550;SDS011;10936;49.836;7.078;2022-09-09T09:19:12;5.05;;;1.00;;
21550;SDS011;10936;49.836;7.078;2022-09-09T09:21:43;5.97;;;1.37;;
21550;SDS011;10936;49.836;7.078;2022-09-09T09:24:24;4.57;;;1.40;;
21550;SDS011;10936;49.836;7.078;2022-09-09T09:27:00;5.15;;;1.30;;
21550;SDS011;10936;49.836;7.078;2022-09-09T09:29:38;4.13;;;1.00;;
21550;SDS011;10936;49.836;7.078;2022-09-09T09:32:07;6.13;;;1.40;;
21550;SDS011;10936;49.836;7.078;2022-09-09T09:34:38;5.30;;;1.35;;
21550;SDS011;10936;49.836;7.078;2022-09-09T09:37:15;6.55;;;1.52;;
21550;SDS011;10936;49.836;7.078;2022-09-09T09:39:44;4.63;;;1.10;;
21550;SDS011;10936;49.836;7.078;2022-09-09T09:42:14;4.60;;;1.07;;
21550;SDS011;10936;49.836;7.078;2022-09-09T09:44:42;1.67;;;0.70;;
21550;SDS011;10936;49.836;7.078;2022-09-09T09:47:18;3.97;;;1.13;;
21550;SDS011;10936;49.836;7.078;2022-09-09T09:52:21;3.43;;;1.10;;
21550;SDS011;10936;49.836;7.078;2022-09-09T09:54:49;3.78;;;0.93;;
21550;SDS011;10936;49.836;7.078;2022-09-09T09:57:16;2.27;;;0.90;;
21550;SDS011;10936;49.836;7.078;2022-09-09T09:59:43;6.60;;;1.08;;
21550;SDS011;10936;49.836;7.078;2022-09-09T10:04:41;4.53;;;1.00;;
21550;SDS011;10936;49.836;7.078;2022-09-09T10:07:18;6.53;;;1.20;;
21550;SDS011;10936;49.836;7.078;2022-09-09T10:09:45;5.30;;;1.30;;
21550;SDS011;10936;49.836;7.078;2022-09-09T10:12:30;4.03;;;1.48;;
21550;SDS011;10936;49.836;7.078;2022-09-09T10:22:02;3.03;;;1.10;;
21550;SDS011;10936;49.836;7.078;2022-09-09T10:25:03;4.68;;;1.35;;
21550;SDS011;10936;49.836;7.078;2022-09-09T10:32:46;3.53;;;1.20;;
21550;SDS011;10936;49.836;7.078;2022-09-09T10:38:27;5.13;;;1.58;;
21550;SDS011;10936;49.836;7.078;2022-09-09T10:41:11;4.05;;;1.20;;
21550;SDS011;10936;49.836;7.078;2022-09-09T10:43:58;5.13;;;1.08;;
21550;SDS011;10936;49.836;7.078;2022-09-09T10:52:38;3.17;;;1.20;;
21550;SDS011;10936;49.836;7.078;2022-09-09T10:55:48;3.83;;;1.30;;
21550;SDS011;10936;49.836;7.078;2022-09-09T10:58:25;7.28;;;1.40;;
21550;SDS011;10936;49.836;7.078;2022-09-09T11:01:00;3.58;;;1.20;;
21550;SDS011;10936;49.836;7.078;2022-09-09T11:03:34;4.07;;;1.13;;
21550;SDS011;10936;49.836;7.078;2022-09-09T11:06:05;3.65;;;1.17;;
21550;SDS011;10936;49.836;7.078;2022-09-09T11:08:38;4.60;;;1.10;;
21550;SDS011;10936;49.836;7.078;2022-09-09T11:11:14;4.03;;;1.27;;
21550;SDS011;10936;49.836;7.078;2022-09-09T11:13:47;4.35;;;0.90;;
21550;SDS011;10936;49.836;7.078;2022-09-09T11:19:35;5.82;;;1.27;;
21550;SDS011;10936;49.836;7.078;2022-09-09T11:22:08;4.07;;;1.02;;
21550;SDS011;10936;49.836;7.078;2022-09-09T11:24:53;3.90;;;1.23;;
21550;SDS011;10936;49.836;7.078;2022-09-09T11:40:53;4.60;;;1.00;;
21550;SDS011;10936;49.836;7.078;2022-09-09T11:43:24;1.98;;;0.80;;
21550;SDS011;10936;49.836;7.078;2022-09-09T11:46:04;3.50;;;1.00;;
21550;SDS011;10936;49.836;7.078;2022-09-09T11:48:36;4.93;;;1.70;;
21550;SDS011;10936;49.836;7.078;2022-09-09T11:51:08;3.03;;;0.90;;
21550;SDS011;10936;49.836;7.078;2022-09-09T11:56:24;2.97;;;0.80;;
21550;SDS011;10936;49.836;7.078;2022-09-09T12:04:05;3.97;;;0.93;;
21550;SDS011;10936;49.836;7.078;2022-09-09T12:06:41;1.60;;;0.77;;
21550;SDS011;10936;49.836;7.078;2022-09-09T12:09:39;3.80;;;0.93;;
21550;SDS011;10936;49.836;7.078;2022-09-09T12:12:37;3.33;;;1.05;;
21550;SDS011;10936;49.836;7.078;2022-09-09T12:17:36;1.38;;;0.65;;
21550;SDS011;10936;49.836;7.078;2022-09-09T12:33:36;4.15;;;1.10;;
21550;SDS011;10936;49.836;7.078;2022-09-09T12:36:05;2.60;;;1.20;;
21550;SDS011;10936;49.836;7.078;2022-09-09T12:38:38;4.38;;;1.05;;
21550;SDS011;10936;49.836;7.078;2022-09-09T12:41:05;2.97;;;0.93;;
21550;SDS011;10936;49.836;7.078;2022-09-09T12:43:45;2.60;;;1.05;;
21550;SDS011;10936;49.836;7.078;2022-09-09T12:46:45;1.75;;;0.90;;
21550;SDS011;10936;49.836;7.078;2022-09-09T12:51:52;1.20;;;0.70;;
21550;SDS011;10936;49.836;7.078;2022-09-09T12:54:18;2.25;;;0.68;;
21550;SDS011;10936;49.836;7.078;2022-09-09T12:56:45;3.50;;;0.93;;
21550;SDS011;10936;49.836;7.078;2022-09-09T12:59:23;1.02;;;0.50;;
21550;SDS011;10936;49.836;7.078;2022-09-09T13:01:57;2.05;;;0.80;;
21550;SDS011;10936;49.836;7.078;2022-09-09T13:04:23;2.35;;;0.90;;
21550;SDS011;10936;49.836;7.078;2022-09-09T13:06:49;2.13;;;0.70;;
21550;SDS011;10936;49.836;7.078;2022-09-09T13:09:17;1.38;;;0.88;;
21550;SDS011;10936;49.836;7.078;2022-09-09T13:11:44;2.30;;;0.73;;
21550;SDS011;10936;49.836;7.078;2022-09-09T13:14:25;2.17;;;0.90;;
21550;SDS011;10936;49.836;7.078;2022-09-09T13:17:00;2.42;;;0.90;;
21550;SDS011;10936;49.836;7.078;2022-09-09T13:19:35;2.25;;;0.95;;
21550;SDS011;10936;49.836;7.078;2022-09-09T13:22:19;3.30;;;0.77;;
21550;SDS011;10936;49.836;7.078;2022-09-09T13:24:45;3.90;;;0.90;;
21550;SDS011;10936;49.836;7.078;2022-09-09T13:35:32;3.22;;;1.00;;
21550;SDS011;10936;49.836;7.078;2022-09-09T13:37:59;2.53;;;0.65;;
21550;SDS011;10936;49.836;7.078;2022-09-09T13:40:32;2.40;;;0.80;;
21550;SDS011;10936;49.836;7.078;2022-09-09T13:42:59;1.95;;;0.80;;
21550;SDS011;10936;49.836;7.078;2022-09-09T13:45:25;2.88;;;0.80;;
21550;SDS011;10936;49.836;7.078;2022-09-09T13:47:52;2.90;;;0.90;;
21550;SDS011;10936;49.836;7.078;2022-09-09T13:50:27;2.40;;;1.00;;
21550;SDS011;10936;49.836;7.078;2022-09-09T13:52:54;2.22;;;0.80;;
21550;SDS011;10936;49.836;7.078;2022-09-09T13:55:24;2.38;;;0.80;;
21550;SDS011;10936;49.836;7.078;2022-09-09T14:00:22;2.70;;;0.80;;
21550;SDS011;10936;49.836;7.078;2022-09-09T14:02:49;3.25;;;0.98;;
21550;SDS011;10936;49.836;7.078;2022-09-09T14:05:15;1.65;;;0.73;;
21550;SDS011;10936;49.836;7.078;2022-09-09T14:07:42;1.17;;;0.65;;
21550;SDS011;10936;49.836;7.078;2022-09-09T14:10:09;5.13;;;1.15;;
21550;SDS011;10936;49.836;7.078;2022-09-09T14:12:35;1.70;;;0.88;;
21550;SDS011;10936;49.836;7.078;2022-09-09T14:15:04;2.45;;;1.20;;
21550;SDS011;10936;49.836;7.078;2022-09-09T14:17:32;3.55;;;0.98;;
21550;SDS011;10936;49.836;7.078;2022-09-09T14:19:58;6.97;;;0.93;;
21550;SDS011;10936;49.836;7.078;2022-09-09T14:22:24;1.90;;;1.00;;
21550;SDS011;10936;49.836;7.078;2022-09-09T14:24:50;4.07;;;1.02;;
21550;SDS011;10936;49.836;7.078;2022-09-09T14:27:16;3.78;;;0.77;;
21550;SDS011;10936;49.836;7.078;2022-09-09T14:29:43;1.98;;;0.73;;
21550;SDS011;10936;49.836;7.078;2022-09-09T14:32:10;1.20;;;0.93;;
21550;SDS011;10936;49.836;7.078;2022-09-09T14:34:36;1.75;;;1.00;;
21550;SDS011;10936;49.836;7.078;2022-09-09T14:37:01;1.95;;;0.57;;
21550;SDS011;10936;49.836;7.078;2022-09-09T14:39:27;3.58;;;0.93;;
21550;SDS011;10936;49.836;7.078;2022-09-09T14:41:53;2.72;;;0.90;;
21550;SDS011;10936;49.836;7.078;2022-09-09T14:44:18;3.55;;;1.00;;
21550;SDS011;10936;49.836;7.078;2022-09-09T14:46:44;4.63;;;0.70;;
21550;SDS011;10936;49.836;7.078;2022-09-09T14:49:10;2.78;;;0.70;;
21550;SDS011;10936;49.836;7.078;2022-09-09T14:51:37;2.63;;;0.90;;
21550;SDS011;10936;49.836;7.078;2022-09-09T14:54:03;2.47;;;0.77;;
21550;SDS011;10936;49.836;7.078;2022-09-09T14:56:31;3.70;;;0.70;;
21550;SDS011;10936;49.836;7.078;2022-09-09T14:58:59;3.25;;;0.60;;
21550;SDS011;10936;49.836;7.078;2022-09-09T15:01:28;1.40;;;0.73;;
21550;SDS011;10936;49.836;7.078;2022-09-09T15:03:56;1.38;;;0.60;;
21550;SDS011;10936;49.836;7.078;2022-09-09T15:06:27;1.17;;;0.60;;
21550;SDS011;10936;49.836;7.078;2022-09-09T15:08:55;1.05;;;0.60;;
21550;SDS011;10936;49.836;7.078;2022-09-09T15:11:25;3.05;;;0.80;;
21550;SDS011;10936;49.836;7.078;2022-09-09T15:13:57;2.90;;;0.65;;
21550;SDS011;10936;49.836;7.078;2022-09-09T15:16:24;1.63;;;0.70;;
21550;SDS011;10936;49.836;7.078;2022-09-09T15:18:52;5.57;;;0.90;;
21550;SDS011;10936;49.836;7.078;2022-09-09T15:21:21;2.17;;;0.60;;
21550;SDS011;10936;49.836;7.078;2022-09-09T15:23:49;1.33;;;0.68;;
21550;SDS011;10936;49.836;7.078;2022-09-09T15:26:16;1.27;;;0.60;;
21550;SDS011;10936;49.836;7.078;2022-09-09T15:28:43;2.13;;;0.65;;
21550;SDS011;10936;49.836;7.078;2022-09-09T15:31:17;0.95;;;0.45;;
21550;SDS011;10936;49.836;7.078;2022-09-09T15:36:24;1.67;;;0.52;;
21550;SDS011;10936;49.836;7.078;2022-09-09T15:38:51;2.40;;;0.80;;
21550;SDS011;10936;49.836;7.078;2022-09-09T15:41:18;0.80;;;0.40;;
21550;SDS011;10936;49.836;7.078;2022-09-09T15:43:49;1.30;;;0.50;;
21550;SDS011;10936;49.836;7.078;2022-09-09T15:48:42;0.68;;;0.52;;
21550;SDS011;10936;49.836;7.078;2022-09-09T15:51:11;2.30;;;0.70;;
21550;SDS011;10936;49.836;7.078;2022-09-09T15:53:37;2.22;;;1.00;;
21550;SDS011;10936;49.836;7.078;2022-09-09T15:56:07;1.15;;;0.50;;
21550;SDS011;10936;49.836;7.078;2022-09-09T15:58:33;1.40;;;0.85;;
21550;SDS011;10936;49.836;7.078;2022-09-09T16:01:04;1.27;;;0.50;;
21550;SDS011;10936;49.836;7.078;2022-09-09T16:03:37;0.73;;;0.70;;
21550;SDS011;10936;49.836;7.078;2022-09-09T16:06:04;2.75;;;0.63;;
21550;SDS011;10936;49.836;7.078;2022-09-09T16:08:34;2.17;;;0.60;;
21550;SDS011;10936;49.836;7.078;2022-09-09T16:11:07;1.00;;;0.60;;
21550;SDS011;10936;49.836;7.078;2022-09-09T16:13:37;2.10;;;0.50;;
21550;SDS011;10936;49.836;7.078;2022-09-09T16:16:04;3.40;;;0.52;;
21550;SDS011;10936;49.836;7.078;2022-09-09T16:18:37;2.70;;;0.80;;
21550;SDS011;10936;49.836;7.078;2022-09-09T16:21:08;2.83;;;0.55;;
21550;SDS011;10936;49.836;7.078;2022-09-09T16:23:49;0.80;;;0.40;;
21550;SDS011;10936;49.836;7.078;2022-09-09T16:26:16;5.10;;;0.60;;
21550;SDS011;10936;49.836;7.078;2022-09-09T16:28:43;3.70;;;0.60;;
21550;SDS011;10936;49.836;7.078;2022-09-09T16:31:12;1.23;;;0.50;;
21550;SDS011;10936;49.836;7.078;2022-09-09T16:33:41;1.35;;;0.40;;
21550;SDS011;10936;49.836;7.078;2022-09-09T16:36:07;1.17;;;0.55;;
21550;SDS011;10936;49.836;7.078;2022-09-09T16:38:35;1.95;;;0.70;;
21550;SDS011;10936;49.836;7.078;2022-09-09T16:41:02;1.52;;;0.82;;
21550;SDS011;10936;49.836;7.078;2022-09-09T16:43:30;1.52;;;0.68;;
21550;SDS011;10936;49.836;7.078;2022-09-09T16:46:00;2.27;;;0.50;;
21550;SDS011;10936;49.836;7.078;2022-09-09T16:48:30;2.53;;;0.75;;
21550;SDS011;10936;49.836;7.078;2022-09-09T16:51:08;1.10;;;0.50;;
21550;SDS011;10936;49.836;7.078;2022-09-09T16:53:39;2.38;;;0.65;;
21550;SDS011;10936;49.836;7.078;2022-09-09T16:56:08;0.90;;;0.57;;
21550;SDS011;10936;49.836;7.078;2022-09-09T16:58:35;1.70;;;0.70;;
21550;SDS011;10936;49.836;7.078;2022-09-09T17:01:01;4.63;;;0.80;;
21550;SDS011;10936;49.836;7.078;2022-09-09T17:03:28;1.37;;;0.80;;
21550;SDS011;10936;49.836;7.078;2022-09-09T17:05:55;3.72;;;0.50;;
21550;SDS011;10936;49.836;7.078;2022-09-09T17:08:22;2.17;;;0.70;;
21550;SDS011;10936;49.836;7.078;2022-09-09T17:10:48;3.53;;;0.70;;
21550;SDS011;10936;49.836;7.078;2022-09-09T17:13:15;4.60;;;0.80;;
21550;SDS011;10936;49.836;7.078;2022-09-09T17:15:44;3.42;;;0.70;;
21550;SDS011;10936;49.836;7.078;2022-09-09T17:18:10;2.93;;;0.83;;
21550;SDS011;10936;49.836;7.078;2022-09-09T17:20:37;3.80;;;0.60;;
21550;SDS011;10936;49.836;7.078;2022-09-09T17:23:03;2.70;;;0.70;;
21550;SDS011;10936;49.836;7.078;2022-09-09T17:25:30;1.95;;;0.68;;
21550;SDS011;10936;49.836;7.078;2022-09-09T17:27:56;1.73;;;0.57;;
21550;SDS011;10936;49.836;7.078;2022-09-09T17:30:23;1.30;;;0.77;;
21550;SDS011;10936;49.836;7.078;2022-09-09T17:32:49;2.07;;;0.77;;
21550;SDS011;10936;49.836;7.078;2022-09-09T17:35:15;2.80;;;0.60;;
21550;SDS011;10936;49.836;7.078;2022-09-09T17:37:40;1.90;;;0.70;;
21550;SDS011;10936;49.836;7.078;2022-09-09T17:40:06;2.27;;;0.90;;
21550;SDS011;10936;49.836;7.078;2022-09-09T17:42:33;1.47;;;0.60;;
21550;SDS011;10936;49.836;7.078;2022-09-09T17:45:00;1.52;;;0.60;;
21550;SDS011;10936;49.836;7.078;2022-09-09T17:47:26;3.80;;;1.00;;
21550;SDS011;10936;49.836;7.078;2022-09-09T17:49:53;3.67;;;0.80;;
21550;SDS011;10936;49.836;7.078;2022-09-09T17:52:19;2.50;;;0.70;;